Terminal Aerodrome Forecast
Issued by NWS

Home | Current Version | Previous Version | Text Only | Print | Product List | Glossary On
Versions: 1 2 3 4 5 6 7 8 9 10 11 12
749
FTUS45 KRIW 121722
TAFLND
TAF
KLND 121722Z 1218/1318 VRB05KT P6SM SCT080 BKN150
     FM122100 VRB05KT P6SM SCT150 BKN250
     FM131500 23007KT P6SM SCT100 BKN200 WS020/26040KT=

USA.gov is the U.S. government's official web portal to all federal, state and local government web resources and services.